Findley Lake, New York
Current Conditions -  °F | °C
As of 10:51 AM on Tuesday 21 Oct 2014 (Local Time) from KERI Reporting Station
Overcast Overcast  
Wind Chill: 52°   Ceiling: 1400
Heat Index: 52°   Visibility: 10mi
Dew Point: 46°   Wind: 9mph
Humidity: 80%   Direction: 320°NW
Pressure: 29.88"   Gusts: NA
Location:  42.12°N, 79.73°W
Report Text: KERI 211451Z 32008KT 10SM BKN014 BKN019 OVC024 11/08 A2988 RMK AO2 RAE19 SLP120 P0000 60000 T01110078 51012 $
Loading
Personal Weather Stations






























Interactive Weather Map
Tropical Storm Tracking
New forecast layout! Learn more

10-Day Weather Forecast

Advertisements
Track Severe Weather on mobile